Time;durP1;ratioP1;P1;durP2;ratioP2;P2;SDS_P1;SDS_P2;PMS_P1;PMS_P2;Temp;Humidity;BMP_temperature;BMP_pressure;BME280_temperature;BME280_humidity;BME280_pressure;Samples;Min_cycle;Max_cycle;Signal;HPM_P1;HPM_P2
2022/11/25 00:02:21;;;;;;;15.65;3.38;;;;;;;-143.48;90.67;78791.59;5053418;28;20070;-72
2022/11/25 00:04:46;;;;;;;21.65;3.90;;;;;;;-143.48;91.39;78787.63;5053763;28;20035;-72
2022/11/25 00:07:12;;;;;;;25.10;4.05;;;;;;;-143.48;91.67;78781.66;5053101;28;20036;-72
2022/11/25 00:09:37;;;;;;;21.30;3.78;;;;;;;-143.48;91.95;78783.66;5051301;28;20067;-72
2022/11/25 00:12:02;;;;;;;17.73;3.40;;;;;;;-143.48;92.42;78779.69;5052615;28;20381;-72
2022/11/25 00:14:28;;;;;;;19.48;3.42;;;;;;;-143.48;92.45;78773.72;5052450;28;20028;-72
2022/11/25 00:16:53;;;;;;;18.02;3.45;;;;;;;-143.48;92.60;78769.75;5052256;28;20047;-72
2022/11/25 00:19:18;;;;;;;14.73;3.28;;;;;;;-143.48;92.65;78757.88;5053083;28;20567;-72
2022/11/25 00:21:44;;;;;;;19.63;3.67;;;;;;;-143.48;92.71;78769.75;5051896;28;20036;-72
2022/11/25 00:24:14;;;;;;;27.17;3.58;;;;;;;-143.48;93.52;78761.84;5053615;28;20136;-73
2022/11/25 00:26:39;;;;;;;22.67;3.67;;;;;;;-143.48;93.61;78769.75;5052113;28;20063;-72
2022/11/25 00:29:07;;;;;;;18.83;3.47;;;;;;;-143.48;93.79;78751.91;5053669;28;20499;-72
2022/11/25 00:31:34;;;;;;;22.02;3.75;;;;;;;-143.48;93.75;78761.84;5053990;28;20025;-72
2022/11/25 00:33:59;;;;;;;18.13;3.58;;;;;;;-143.48;93.97;78759.84;5053871;28;20036;-72
2022/11/25 00:36:27;;;;;;;20.75;3.58;;;;;;;-143.48;94.23;78771.75;5053837;28;20036;-72
2022/11/25 00:38:58;;;;;;;12.07;3.15;;;;;;;-143.48;94.39;78759.84;5053736;28;20484;-72
2022/11/25 00:46:54;;;;;;;19.52;3.50;;;;;;;-143.48;94.67;78755.88;5053647;28;20043;-72
2022/11/25 00:49:19;;;;;;;19.40;3.65;;;;;;;-143.48;95.29;78743.97;5053587;28;20383;-72
2022/11/25 00:51:44;;;;;;;17.30;3.03;;;;;;;-143.48;95.51;78738.03;5053450;28;20020;-72
2022/11/25 00:54:11;;;;;;;18.30;2.97;;;;;;;-143.48;95.04;78724.16;5053716;28;20024;-72
2022/11/25 00:56:37;;;;;;;17.38;3.10;;;;;;;-143.48;95.10;78740.00;5051672;28;20152;-72
2022/11/25 00:59:02;;;;;;;19.52;3.20;;;;;;;-143.48;94.77;78734.06;5052979;28;20024;-72
2022/11/25 01:01:28;;;;;;;13.70;2.78;;;;;;;-143.48;94.33;78732.09;5053260;28;20372;-72
2022/11/25 01:03:53;;;;;;;16.40;3.42;;;;;;;-143.48;94.64;78732.09;5053482;28;20376;-72
2022/11/25 01:06:19;;;;;;;17.40;3.28;;;;;;;-143.48;94.81;78734.06;5053480;28;20413;-72
2022/11/25 01:08:44;;;;;;;22.17;3.55;;;;;;;-143.48;95.03;78730.09;5052021;28;20029;-72
2022/11/25 01:11:12;;;;;;;13.68;3.08;;;;;;;-143.48;95.16;78728.13;5053397;28;20025;-73
2022/11/25 01:13:37;;;;;;;14.18;3.00;;;;;;;-143.48;95.52;78732.09;5052802;28;20174;-72
2022/11/25 01:16:04;;;;;;;15.05;3.33;;;;;;;-143.48;95.49;78734.06;5053109;28;20053;-72
2022/11/25 01:18:30;;;;;;;16.73;3.00;;;;;;;-143.48;96.01;78743.97;5053263;28;20032;-72
2022/11/25 01:21:05;;;;;;;12.30;3.55;;;;;;;-143.48;96.16;78738.03;5052994;28;20048;-72
2022/11/25 01:23:30;;;;;;;12.88;3.30;;;;;;;-143.48;96.09;78730.09;5052756;28;20025;-72
2022/11/25 01:25:56;;;;;;;17.48;3.30;;;;;;;-143.48;96.06;78740.00;5051504;28;20400;-72
2022/11/25 01:28:21;;;;;;;21.25;3.60;;;;;;;-143.48;95.76;78742.00;5051857;28;20392;-72
2022/11/25 01:30:46;;;;;;;22.40;3.00;;;;;;;-143.48;96.00;78736.03;5053298;28;20029;-72
2022/11/25 01:33:11;;;;;;;18.63;3.30;;;;;;;-143.48;96.01;78740.00;5052990;28;20021;-72
2022/11/25 01:35:37;;;;;;;22.38;4.00;;;;;;;-143.48;95.85;78745.97;5053124;28;20071;-72
2022/11/25 01:38:02;;;;;;;23.27;4.00;;;;;;;-143.48;96.13;78757.88;5051549;28;20025;-72
2022/11/25 01:40:28;;;;;;;18.67;3.33;;;;;;;-143.48;96.48;78745.97;5052934;28;20029;-72
2022/11/25 01:42:53;;;;;;;15.32;3.08;;;;;;;-143.48;96.07;78745.97;5052600;28;20022;-72
2022/11/25 01:45:21;;;;;;;16.00;2.97;;;;;;;-143.48;96.52;78753.91;5051545;28;20028;-72
2022/11/25 01:47:48;;;;;;;17.45;3.42;;;;;;;-143.48;96.16;78755.88;5052907;28;20432;-72
2022/11/25 01:50:19;;;;;;;25.90;3.33;;;;;;;-143.48;96.30;78753.91;5052875;28;20025;-72
2022/11/25 01:52:49;;;;;;;19.83;3.30;;;;;;;-143.48;96.50;78755.88;5052525;28;20029;-72
2022/11/25 01:55:20;;;;;;;15.88;3.30;;;;;;;-143.48;96.23;78757.88;5051315;28;20078;-72
2022/11/25 01:57:49;;;;;;;18.02;3.75;;;;;;;-143.48;96.44;78757.88;5051575;28;20457;-72
2022/11/25 02:00:15;;;;;;;20.27;3.70;;;;;;;-143.48;96.92;78749.94;5051350;28;20115;-72
2022/11/25 02:02:41;;;;;;;18.15;3.55;;;;;;;-143.48;96.85;78747.94;5052578;28;20107;-72
2022/11/25 02:05:09;;;;;;;19.33;3.83;;;;;;;-143.48;96.52;78747.94;5052846;28;20032;-72
2022/11/25 02:07:37;;;;;;;17.90;3.83;;;;;;;-143.48;96.69;78755.88;5051716;28;20021;-73
2022/11/25 02:10:07;;;;;;;19.00;3.85;;;;;;;-143.48;96.86;78745.97;5055306;28;20051;-73
2022/11/25 02:12:39;;;;;;;19.00;3.70;;;;;;;-143.48;97.04;78759.84;5056339;28;20021;-72
2022/11/25 02:15:05;;;;;;;16.95;3.72;;;;;;;-143.48;97.35;78738.03;5055245;28;20020;-72
2022/11/25 02:17:31;;;;;;;20.83;3.80;;;;;;;-143.48;96.78;78736.03;5056043;28;20032;-72
2022/11/25 02:20:04;;;;;;;18.15;3.92;;;;;;;-143.48;96.43;78736.03;5054935;28;20383;-72
2022/11/25 02:22:45;;;;;;;15.85;3.78;;;;;;;-143.48;96.19;78736.03;5054824;28;20027;-72
2022/11/25 02:25:17;;;;;;;23.77;4.32;;;;;;;-143.48;96.12;78724.16;5054365;28;20053;-72
2022/11/25 02:27:45;;;;;;;19.90;3.95;;;;;;;-143.48;95.90;78728.13;5054574;28;20021;-72
2022/11/25 02:30:10;;;;;;;19.48;3.65;;;;;;;-143.48;96.23;78720.19;5055447;28;20052;-72
2022/11/25 02:32:41;;;;;;;17.67;4.57;;;;;;;-143.48;96.12;78724.16;5054655;28;20055;-73
2022/11/25 02:35:24;;;;;;;14.48;3.95;;;;;;;-143.48;96.21;78714.22;5056055;28;20028;-73
2022/11/25 02:37:49;;;;;;;18.08;4.85;;;;;;;-143.48;96.50;78702.31;5055589;28;20039;-72
2022/11/25 02:40:16;;;;;;;15.40;3.97;;;;;;;-143.48;96.31;78724.16;5054796;28;20037;-73
2022/11/25 02:42:43;;;;;;;19.77;3.92;;;;;;;-143.48;96.39;78724.16;5055268;28;20033;-72
2022/11/25 02:45:11;;;;;;;15.02;3.83;;;;;;;-143.48;96.30;78718.19;5055974;28;20023;-72
2022/11/25 02:47:37;;;;;;;14.73;3.75;;;;;;;-143.48;96.16;78718.19;5055830;28;20495;-72
2022/11/25 02:50:02;;;;;;;17.88;3.70;;;;;;;-143.48;96.08;78706.28;5053911;28;20060;-72
2022/11/25 02:52:28;;;;;;;17.42;3.47;;;;;;;-143.48;95.52;78720.19;5055365;28;20388;-72
2022/11/25 02:54:53;;;;;;;20.67;3.30;;;;;;;-143.48;95.88;78716.22;5055822;28;20056;-72
2022/11/25 02:57:18;;;;;;;14.45;4.10;;;;;;;-143.48;95.75;78714.22;5055580;28;20480;-72
2022/11/25 02:59:43;;;;;;;17.98;3.60;;;;;;;-143.48;95.93;78714.22;5055342;28;20031;-72
2022/11/25 03:02:09;;;;;;;21.25;3.40;;;;;;;-143.48;95.79;78718.19;5053980;28;20037;-72
2022/11/25 03:04:34;;;;;;;19.63;3.45;;;;;;;-143.48;95.72;78718.19;5055565;28;20064;-72
2022/11/25 03:06:59;;;;;;;21.13;3.95;;;;;;;-143.48;96.09;78726.13;5055209;28;20025;-72
2022/11/25 03:09:24;;;;;;;14.27;3.67;;;;;;;-143.48;95.87;78720.19;5054090;28;20064;-72
2022/11/25 03:14:33;;;;;;;16.02;3.25;;;;;;;-143.48;96.24;78745.97;5055456;28;20040;-72
2022/11/25 03:16:59;;;;;;;17.73;3.30;;;;;;;-143.48;96.37;78747.94;5055241;28;20356;-72
2022/11/25 03:19:24;;;;;;;17.10;3.38;;;;;;;-143.48;96.41;78747.94;5052796;28;20029;-72
2022/11/25 03:21:50;;;;;;;19.70;3.70;;;;;;;-143.48;96.41;78730.09;5054868;28;20026;-72
2022/11/25 03:24:15;;;;;;;14.45;3.53;;;;;;;-143.48;95.98;78740.00;5053535;28;20044;-72
2022/11/25 03:26:40;;;;;;;17.17;3.90;;;;;;;-143.48;96.36;78742.00;5054393;28;20052;-71
2022/11/25 03:29:06;;;;;;;14.65;3.20;;;;;;;-143.48;96.16;78732.09;5054775;28;20467;-72
2022/11/25 03:31:31;;;;;;;16.20;3.60;;;;;;;-143.48;96.00;78736.03;5053566;28;20191;-72
2022/11/25 03:33:57;;;;;;;13.77;3.25;;;;;;;-143.48;96.10;78736.03;5054685;28;20021;-72
2022/11/25 03:36:22;;;;;;;14.60;3.58;;;;;;;-143.48;96.04;78732.09;5054677;28;20048;-71
2022/11/25 03:38:47;;;;;;;23.35;4.15;;;;;;;-143.48;96.06;78747.94;5053269;28;20032;-71
2022/11/25 03:41:12;;;;;;;18.90;3.53;;;;;;;-143.48;96.13;78743.97;5054346;28;20345;-71
2022/11/25 03:43:38;;;;;;;16.30;3.78;;;;;;;-143.48;96.11;78753.91;5054446;28;20075;-72
2022/11/25 03:46:03;;;;;;;18.23;3.80;;;;;;;-143.48;96.47;78753.91;5053305;28;20413;-72
2022/11/25 03:48:28;;;;;;;19.40;3.92;;;;;;;-143.48;96.75;78755.88;5053213;28;20496;-71
2022/11/25 03:50:54;;;;;;;18.15;3.60;;;;;;;-143.48;96.42;78751.91;5054279;28;20083;-72
2022/11/25 03:53:19;;;;;;;17.17;3.90;;;;;;;-143.48;96.87;78755.88;5052698;28;20104;-72
2022/11/25 03:55:47;;;;;;;16.92;3.58;;;;;;;-143.48;96.11;78769.75;5054544;28;20028;-72
2022/11/25 03:58:12;;;;;;;12.43;3.67;;;;;;;-143.48;96.16;78767.78;5054722;28;20480;-72
2022/11/25 04:00:38;;;;;;;13.98;3.40;;;;;;;-143.48;96.18;78759.84;5054418;28;20033;-72
2022/11/25 04:03:04;;;;;;;14.15;3.47;;;;;;;-143.48;95.89;78753.91;5054180;28;20473;-72
2022/11/25 04:05:29;;;;;;;14.57;3.55;;;;;;;-143.48;96.37;78767.78;5054140;28;20074;-72
2022/11/25 04:07:54;;;;;;;14.13;3.20;;;;;;;-143.48;96.16;78783.66;5054203;28;20021;-72
2022/11/25 04:10:20;;;;;;;14.63;3.42;;;;;;;-143.48;95.87;78775.72;5054025;28;20112;-72
2022/11/25 04:12:45;;;;;;;15.93;3.30;;;;;;;-143.48;95.90;78781.66;5053014;28;20375;-72
2022/11/25 04:15:10;;;;;;;15.57;3.33;;;;;;;-143.48;95.64;78779.69;5054108;28;20025;-72
2022/11/25 04:17:36;;;;;;;11.90;3.42;;;;;;;-143.48;95.52;78787.63;5052579;28;20426;-72
2022/11/25 04:20:01;;;;;;;17.52;3.65;;;;;;;-143.48;95.45;78787.63;5053888;28;20377;-72
2022/11/25 04:22:27;;;;;;;12.98;3.13;;;;;;;-143.48;95.30;78787.63;5052800;28;20025;-72
2022/11/25 04:24:52;;;;;;;12.65;2.95;;;;;;;-143.48;95.05;78779.69;5053119;28;20049;-72
2022/11/25 04:27:17;;;;;;;10.35;2.67;;;;;;;-143.48;94.38;78787.63;5053672;28;20066;-72
2022/11/25 04:29:42;;;;;;;8.40;2.50;;;;;;;-143.48;94.06;78785.63;5050719;28;20663;-72
2022/11/25 04:32:08;;;;;;;11.48;2.67;;;;;;;-143.48;93.89;78795.53;5051350;28;20017;-72
2022/11/25 04:34:33;;;;;;;9.55;2.50;;;;;;;-143.48;93.80;78793.56;5052090;28;20040;-72
2022/11/25 04:36:58;;;;;;;8.18;2.45;;;;;;;-143.48;94.00;78803.47;5052328;28;20021;-72
2022/11/25 04:39:24;;;;;;;9.20;2.60;;;;;;;-143.48;93.66;78811.41;5052121;28;20461;-72
2022/11/25 04:41:49;;;;;;;11.20;2.40;;;;;;;-143.48;93.47;78813.41;5052201;28;20033;-72
2022/11/25 04:44:14;;;;;;;7.75;2.10;;;;;;;-143.48;93.66;78819.34;5051810;28;20035;-72
2022/11/25 04:46:42;;;;;;;10.15;2.47;;;;;;;-143.48;93.08;78823.31;5053287;28;20021;-72
2022/11/25 04:49:08;;;;;;;8.98;2.40;;;;;;;-143.48;93.14;78835.22;5053417;28;20052;-72
2022/11/25 04:51:33;;;;;;;5.18;1.98;;;;;;;-143.48;93.04;78851.09;5053163;28;20025;-72
2022/11/25 04:53:59;;;;;;;9.18;2.35;;;;;;;-143.48;93.75;78862.97;5053580;28;20032;-72
2022/11/25 04:56:24;;;;;;;12.18;2.50;;;;;;;-143.48;93.61;78855.06;5053272;28;20029;-72
2022/11/25 05:01:33;;;;;;;9.20;2.25;;;;;;;-143.48;94.26;78884.81;5053451;28;20141;-72
2022/11/25 05:03:58;;;;;;;9.93;2.33;;;;;;;-143.48;94.05;78878.84;5053529;28;20044;-72
2022/11/25 05:06:24;;;;;;;10.27;2.20;;;;;;;-143.48;93.92;78890.75;5053112;28;20017;-72
2022/11/25 05:08:50;;;;;;;7.47;2.10;;;;;;;-143.48;94.17;78902.66;5051968;28;20027;-72
2022/11/25 05:11:16;;;;;;;8.10;2.22;;;;;;;-143.48;93.84;78896.69;5051909;28;20071;-72
2022/11/25 05:13:41;;;;;;;6.20;1.88;;;;;;;-143.48;94.03;78908.59;5052851;28;20032;-72
2022/11/25 05:16:07;;;;;;;8.35;2.00;;;;;;;-143.48;93.94;78908.59;5052912;28;20024;-72
2022/11/25 05:18:32;;;;;;;10.90;2.60;;;;;;;-143.48;93.94;78926.47;5053018;28;20025;-72
2022/11/25 05:21:02;;;;;;;6.45;1.90;;;;;;;-143.48;94.33;78920.50;5053107;28;20388;-72
2022/11/25 05:23:27;;;;;;;5.63;1.67;;;;;;;-143.48;94.02;78920.50;5053059;28;20025;-72
2022/11/25 05:26:04;;;;;;;5.18;1.85;;;;;;;-143.48;93.73;78926.47;5053084;28;20055;-72
2022/11/25 05:28:30;;;;;;;7.93;1.70;;;;;;;-143.48;94.00;78944.31;5053007;28;20491;-72
2022/11/25 05:30:55;;;;;;;8.23;2.00;;;;;;;-143.48;93.48;78934.38;5052534;28;20020;-72
2022/11/25 05:33:20;;;;;;;6.00;1.90;;;;;;;-143.48;93.76;78950.25;5051322;28;20044;-72
2022/11/25 05:35:57;;;;;;;5.60;2.08;;;;;;;-143.48;93.56;78942.31;5051228;28;20480;-73
2022/11/25 05:38:23;;;;;;;13.35;2.00;;;;;;;-143.48;93.58;78950.25;5051459;28;20029;-72
2022/11/25 05:40:48;;;;;;;9.80;2.70;;;;;;;-143.48;93.41;78944.31;5051462;28;20436;-73
2022/11/25 05:43:14;;;;;;;7.53;2.00;;;;;;;-143.48;93.12;78962.16;5052745;28;20049;-74
2022/11/25 05:45:39;;;;;;;5.53;2.50;;;;;;;-143.48;93.15;78968.09;5054094;28;20028;-73
2022/11/25 05:48:04;;;;;;;5.72;2.05;;;;;;;-143.48;93.93;78972.06;5054464;28;20460;-74
2022/11/25 05:50:30;;;;;;;9.68;2.33;;;;;;;-143.48;93.58;78962.16;5056282;28;20460;-74
2022/11/25 05:52:55;;;;;;;6.07;1.98;;;;;;;-143.48;93.42;78962.16;5056854;28;20035;-74
2022/11/25 05:55:20;;;;;;;7.03;2.53;;;;;;;-143.48;93.32;78970.09;5056671;28;20107;-73
2022/11/25 05:57:46;;;;;;;7.15;2.38;;;;;;;-143.48;93.17;78978.03;5056586;28;20373;-74
2022/11/25 06:00:12;;;;;;;6.15;2.10;;;;;;;-143.48;93.20;78974.06;5056824;28;20033;-73
2022/11/25 06:02:37;;;;;;;7.20;1.92;;;;;;;-143.48;93.43;78966.13;5055351;28;20025;-74
2022/11/25 06:05:02;;;;;;;7.03;2.33;;;;;;;-143.48;93.12;78974.06;5056536;28;20020;-74
2022/11/25 06:07:28;;;;;;;7.57;2.50;;;;;;;-143.48;93.38;78982.00;5056635;28;20021;-74
2022/11/25 06:09:53;;;;;;;5.00;2.10;;;;;;;-143.48;92.90;78989.94;5054970;28;20059;-73
2022/11/25 06:12:22;;;;;;;7.93;2.83;;;;;;;-143.48;93.03;78987.94;5054771;28;20033;-73
2022/11/25 06:14:47;;;;;;;11.70;2.97;;;;;;;-143.48;92.91;78993.91;5055904;28;20055;-74
2022/11/25 06:17:12;;;;;;;8.07;2.75;;;;;;;-143.48;93.46;78989.94;5055152;28;20025;-73
2022/11/25 06:19:38;;;;;;;9.93;2.72;;;;;;;-143.48;93.02;78993.91;5056035;28;20108;-73
2022/11/25 06:22:03;;;;;;;10.73;2.90;;;;;;;-143.48;93.20;78993.91;5055840;28;20036;-74
2022/11/25 06:24:29;;;;;;;7.00;2.60;;;;;;;-143.48;93.45;78995.88;5056006;28;20531;-73
2022/11/25 06:26:54;;;;;;;8.20;2.92;;;;;;;-143.48;93.12;79003.81;5056067;28;20032;-74
2022/11/25 06:29:20;;;;;;;7.93;2.65;;;;;;;-143.48;93.47;78999.84;5055998;28;20376;-73
2022/11/25 06:31:45;;;;;;;9.75;2.97;;;;;;;-143.48;93.01;78999.84;5055183;28;20368;-73
2022/11/25 06:34:10;;;;;;;6.97;2.65;;;;;;;-143.48;92.99;78993.91;5054546;28;20025;-73
2022/11/25 06:36:35;;;;;;;10.10;2.92;;;;;;;-143.48;93.27;78999.84;5054488;28;20446;-73
2022/11/25 06:39:01;;;;;;;7.50;2.88;;;;;;;-143.48;92.68;79013.72;5054383;28;20033;-73
2022/11/25 06:41:26;;;;;;;8.20;2.75;;;;;;;-143.48;92.90;79015.72;5054102;28;20020;-74
2022/11/25 06:43:51;;;;;;;6.85;2.70;;;;;;;-143.48;93.41;79021.66;5054208;28;20027;-73
2022/11/25 06:46:19;;;;;;;7.15;3.08;;;;;;;-143.48;93.33;79027.63;5053667;28;20043;-73
2022/11/25 06:48:44;;;;;;;10.85;3.22;;;;;;;-143.48;93.48;79033.56;5054304;28;20112;-73
2022/11/25 06:51:12;;;;;;;10.30;3.45;;;;;;;-143.48;93.37;79039.53;5053883;28;20115;-73
2022/11/25 06:53:39;;;;;;;8.75;3.30;;;;;;;-143.48;93.75;79041.50;5055467;28;20086;-73
2022/11/25 06:56:16;;;;;;;7.57;3.65;;;;;;;-143.48;93.75;79047.44;5053276;28;20029;-73
2022/11/25 06:58:42;;;;;;;11.35;3.88;;;;;;;-143.48;93.72;79051.41;5055584;28;20039;-74
2022/11/25 07:01:19;;;;;;;8.15;3.42;;;;;;;-143.48;93.61;79053.41;5054847;28;20029;-73
2022/11/25 07:03:46;;;;;;;10.77;3.83;;;;;;;-143.48;94.36;79067.28;5054990;28;20037;-73
2022/11/25 07:06:14;;;;;;;9.15;3.83;;;;;;;-143.48;94.45;79079.19;5055487;28;20131;-73
2022/11/25 07:08:40;;;;;;;10.00;3.67;;;;;;;-143.48;94.20;79067.28;5054969;28;20107;-73
2022/11/25 07:11:17;;;;;;;9.98;3.97;;;;;;;-143.48;93.94;79071.25;5055339;28;20154;-74
2022/11/25 07:13:43;;;;;;;7.88;3.80;;;;;;;-143.48;93.48;79075.22;5055394;28;20078;-73
2022/11/25 07:16:09;;;;;;;7.95;3.80;;;;;;;-143.48;93.75;79079.19;5053573;28;20542;-73
2022/11/25 07:18:37;;;;;;;8.30;4.07;;;;;;;-143.48;93.86;79087.13;5053564;28;20025;-73
2022/11/25 07:21:04;;;;;;;12.98;3.67;;;;;;;-143.48;93.55;79077.19;5054555;28;20276;-74
2022/11/25 07:23:29;;;;;;;11.68;4.07;;;;;;;-143.48;93.12;79083.16;5054403;28;20444;-74
2022/11/25 07:26:00;;;;;;;11.70;3.53;;;;;;;-143.48;93.45;79089.09;5054309;28;20048;-75
2022/11/25 07:28:26;;;;;;;8.27;3.55;;;;;;;-143.48;93.19;79087.13;5054436;28;20021;-74
2022/11/25 07:30:52;;;;;;;9.38;3.83;;;;;;;-143.48;93.07;79091.09;5054314;28;20116;-74
2022/11/25 07:33:17;;;;;;;10.63;4.07;;;;;;;-143.48;92.92;79099.03;5054371;28;20394;-72
2022/11/25 07:35:42;;;;;;;8.25;3.53;;;;;;;-143.48;93.05;79095.06;5052910;28;20025;-73
2022/11/25 07:38:07;;;;;;;14.00;4.10;;;;;;;-143.48;92.80;79097.03;5054103;28;20388;-74
2022/11/25 07:40:33;;;;;;;7.13;3.40;;;;;;;-143.48;92.74;79095.06;5052935;28;20021;-74
2022/11/25 07:42:58;;;;;;;8.70;3.95;;;;;;;-143.48;92.73;79077.19;5053942;28;20028;-74
2022/11/25 07:45:23;;;;;;;9.75;4.03;;;;;;;-143.48;91.53;79091.09;5052794;28;20048;-74
2022/11/25 07:47:48;;;;;;;11.95;3.78;;;;;;;-143.48;91.51;79103.00;5052731;28;20127;-74
2022/11/25 07:50:14;;;;;;;8.52;3.58;;;;;;;-143.48;91.54;79106.97;5053860;28;20541;-73
2022/11/25 07:52:39;;;;;;;11.15;3.67;;;;;;;-143.48;92.13;79103.00;5053929;28;20021;-73
2022/11/25 07:55:05;;;;;;;8.25;3.40;;;;;;;-143.48;91.09;79104.97;5053868;28;20027;-74
2022/11/25 07:57:30;;;;;;;9.80;3.45;;;;;;;-143.48;90.83;79091.09;5053820;28;20033;-73
2022/11/25 07:59:56;;;;;;;9.52;3.40;;;;;;;-143.48;90.92;79110.94;5054075;28;20025;-73
2022/11/25 08:02:22;;;;;;;9.80;3.40;;;;;;;-143.48;90.65;79097.03;5053849;28;20032;-74
2022/11/25 08:04:47;;;;;;;12.07;3.70;;;;;;;-143.48;90.07;79099.03;5053583;28;20124;-73
2022/11/25 08:07:12;;;;;;;9.98;3.80;;;;;;;-143.48;89.77;79085.13;5053288;28;20111;-74
2022/11/25 08:09:37;;;;;;;12.85;3.80;;;;;;;-143.48;89.61;79097.03;5053538;28;20023;-74
2022/11/25 08:12:03;;;;;;;8.68;3.50;;;;;;;-143.48;89.86;79091.09;5053445;28;20029;-74
2022/11/25 08:14:28;;;;;;;9.75;3.70;;;;;;;-143.48;89.63;79103.00;5053510;28;20033;-74
2022/11/25 08:16:53;;;;;;;9.80;3.67;;;;;;;-143.48;89.36;79089.09;5053380;28;20107;-74
2022/11/25 08:19:19;;;;;;;11.32;3.80;;;;;;;-143.48;89.09;79095.06;5052071;28;20400;-74
2022/11/25 08:21:46;;;;;;;7.50;3.33;;;;;;;-143.48;89.38;79085.13;5053535;28;20025;-74
2022/11/25 08:24:18;;;;;;;11.02;3.83;;;;;;;-143.48;88.62;79081.16;5053494;28;20020;-73
2022/11/25 08:26:43;;;;;;;13.82;3.92;;;;;;;-143.48;88.29;79099.03;5053168;28;20127;-74
2022/11/25 08:29:12;;;;;;;8.57;3.50;;;;;;;-143.48;87.92;79099.03;5051903;28;20068;-74
2022/11/25 08:31:38;;;;;;;7.75;3.80;;;;;;;-143.48;87.96;79087.13;5053184;28;20064;-74
2022/11/25 08:34:04;;;;;;;9.73;3.38;;;;;;;-143.48;87.36;79069.28;5053340;28;20412;-75
2022/11/25 08:36:31;;;;;;;8.40;3.50;;;;;;;-143.48;87.44;79079.19;5051749;28;20020;-75
2022/11/25 08:38:58;;;;;;;9.80;3.28;;;;;;;-143.48;86.66;79069.28;5051759;28;20040;-75
2022/11/25 08:41:28;;;;;;;11.32;3.63;;;;;;;-143.48;86.36;79073.25;5051759;28;20393;-77
2022/11/25 08:43:54;;;;;;;9.35;3.33;;;;;;;-143.48;85.91;79077.19;5051615;28;20033;-76
2022/11/25 08:46:23;;;;;;;9.75;3.28;;;;;;;-143.48;86.09;79071.25;5052987;28;20103;-76
2022/11/25 08:48:48;;;;;;;9.65;3.50;;;;;;;-143.48;85.78;79075.22;5053102;28;20021;-76
2022/11/25 08:51:20;;;;;;;7.75;2.70;;;;;;;-143.48;85.52;79069.28;5052779;28;20028;-76
2022/11/25 08:53:46;;;;;;;9.43;3.50;;;;;;;-143.48;84.90;79067.28;5053116;28;20020;-76
2022/11/25 08:56:12;;;;;;;9.55;3.28;;;;;;;-143.48;83.90;79055.38;5053033;28;20021;-76
2022/11/25 08:58:38;;;;;;;11.57;3.28;;;;;;;-143.48;84.00;79059.34;5051634;28;20033;-75
2022/11/25 09:01:04;;;;;;;11.45;3.20;;;;;;;-143.48;83.91;79055.38;5051438;28;20392;-74
2022/11/25 09:03:35;;;;;;;11.35;3.10;;;;;;;-143.48;84.11;79053.41;5052516;28;20021;-75
2022/11/25 09:06:01;;;;;;;14.68;4.68;;;;;;;-143.48;83.58;79061.34;5052818;28;20036;-74
2022/11/25 09:08:27;;;;;;;9.90;3.28;;;;;;;-143.48;83.66;79053.41;5051463;28;20021;-73
2022/11/25 09:10:52;;;;;;;13.05;4.07;;;;;;;-143.48;83.50;79067.28;5052604;28;20028;-75
2022/11/25 09:13:18;;;;;;;9.27;3.40;;;;;;;-143.48;82.83;79073.25;5052662;28;20079;-76
2022/11/25 09:15:43;;;;;;;13.20;3.67;;;;;;;-143.48;83.61;79071.25;5052360;28;20025;-75
2022/11/25 09:18:10;;;;;;;9.45;3.55;;;;;;;-143.48;82.99;79061.34;5051870;28;20025;-75
2022/11/25 09:20:40;;;;;;;8.30;3.20;;;;;;;-143.48;83.26;79069.28;5052251;28;20056;-76
2022/11/25 09:23:07;;;;;;;8.93;3.22;;;;;;;-143.48;83.04;79059.34;5052485;28;20492;-76
2022/11/25 09:25:32;;;;;;;10.38;3.60;;;;;;;-143.48;82.99;79063.31;5050972;28;20095;-75
2022/11/25 09:27:57;;;;;;;14.30;3.90;;;;;;;-143.48;82.50;79051.41;5051172;28;20029;-76
2022/11/25 09:30:24;;;;;;;9.90;3.72;;;;;;;-143.48;82.38;79045.47;5052555;28;20017;-76
2022/11/25 09:32:51;;;;;;;8.05;3.20;;;;;;;-143.48;82.49;79051.41;5052459;28;20408;-76
2022/11/25 09:35:17;;;;;;;11.07;3.17;;;;;;;-143.48;81.62;79031.59;5052881;28;20130;-75
2022/11/25 09:37:42;;;;;;;10.00;3.22;;;;;;;-143.48;81.22;79015.72;5051762;28;20414;-75
2022/11/25 09:40:32;;;;;;;14.05;3.85;;;;;;;-143.48;81.31;79019.69;5052727;28;20029;-75
2022/11/25 09:49:26;;;;;;;11.35;3.50;;;;;;;-143.48;70.26;78706.28;4991681;28;20049;-75
2022/11/25 09:51:57;;;;;;;16.95;2.95;;;;;;;-143.48;59.57;78369.13;5049995;28;20079;-76
2022/11/25 09:54:38;;;;;;;11.13;2.70;;;;;;;-143.48;56.08;78325.50;5052848;28;20029;-76
2022/11/25 09:57:28;;;;;;;8.60;2.78;;;;;;;-143.48;53.17;78208.50;5051461;28;20029;-76
2022/11/25 09:59:59;;;;;;;7.85;2.50;;;;;;;-143.48;52.55;78182.72;5052727;28;20025;-77
2022/11/25 10:02:41;;;;;;;7.55;2.50;;;;;;;-143.48;50.45;78158.91;5052615;28;20056;-76
2022/11/25 10:05:26;;;;;;;8.45;2.83;;;;;;;-143.48;50.07;78141.06;5052820;28;20071;-75
2022/11/25 10:07:58;;;;;;;10.25;2.25;;;;;;;-143.48;49.10;78081.56;5053024;28;20039;-77
2022/11/25 10:10:30;;;;;;;9.35;2.53;;;;;;;-143.48;47.52;78035.97;5052926;28;20431;-77
2022/11/25 10:12:58;;;;;;;7.32;2.40;;;;;;;-143.48;48.12;78043.91;5052587;28;20021;-77
2022/11/25 10:15:30;;;;;;;7.13;2.38;;;;;;;-143.48;46.72;78010.19;5052693;28;20075;-77
2022/11/25 10:18:25;;;;;;;9.95;2.28;;;;;;;-143.48;45.87;78002.25;5051228;28;20032;-78
2022/11/25 10:20:51;;;;;;;8.00;2.50;;;;;;;-143.48;46.63;78008.22;5052837;28;20057;-77
2022/11/25 10:23:34;;;;;;;10.50;2.70;;;;;;;-143.48;44.80;77958.63;5052564;28;20060;-77
2022/11/25 10:26:09;;;;;;;;;;;;;;;-143.48;45.04;77930.88;5053005;28;20037;-77
2022/11/25 10:28:35;;;;;;;7.03;2.42;;;;;;;-143.48;43.31;77857.50;5052638;28;19919;-78
2022/11/25 10:31:17;;;;;;;8.07;2.47;;;;;;;-143.48;44.75;77970.53;5053961;28;20025;-77
2022/11/25 10:33:58;;;;;;;8.73;2.30;;;;;;;-143.48;45.29;78016.13;5055768;28;20362;-79
2022/11/25 10:36:28;;;;;;;9.00;2.38;;;;;;;-143.48;43.76;77924.91;5056125;28;20267;-76
2022/11/25 10:38:58;;;;;;;12.18;2.83;;;;;;;-143.48;42.46;77801.97;5054869;28;20025;-77
2022/11/25 10:41:27;;;;;;;7.20;2.58;;;;;;;-143.48;42.86;77855.50;5054886;28;20028;-78
2022/11/25 10:43:52;;;;;;;9.13;2.42;;;;;;;-143.48;43.52;77907.06;5056229;28;20107;-78
2022/11/25 10:46:24;;;;;;;9.50;2.45;;;;;;;-143.48;45.15;78035.97;5056035;28;20110;-78
2022/11/25 10:49:00;;;;;;;9.65;2.63;;;;;;;-143.48;42.83;77843.63;5054487;28;20453;-77
2022/11/25 10:51:42;;;;;;;7.20;2.40;;;;;;;-143.48;43.99;77901.13;5054613;28;20116;-78
2022/11/25 10:54:11;;;;;;;8.90;2.30;;;;;;;-143.48;51.96;78432.59;5054512;28;20044;-77
2022/11/25 10:56:55;;;;;;;11.63;2.50;;;;;;;-143.48;61.02;78690.44;5055967;28;20028;-77
2022/11/25 10:59:29;;;;;;;10.18;2.40;;;;;;;-143.48;62.98;78704.31;5055644;28;20039;-77
2022/11/25 11:02:18;;;;;;;15.00;2.65;;;;;;;-143.48;64.12;78740.00;5055645;28;20017;-76
2022/11/25 11:05:00;;;;;;;8.27;2.55;;;;;;;-143.48;53.89;78275.94;5053703;28;20021;-77
2022/11/25 11:07:34;;;;;;;10.30;2.70;;;;;;;-143.48;45.72;77950.69;5053112;28;20416;-76
2022/11/25 11:10:26;;;;;;;10.15;2.78;;;;;;;-143.48;48.88;78214.44;5051641;28;20021;-76
2022/11/25 11:13:00;;;;;;;9.02;2.42;;;;;;;-143.48;52.34;78337.41;5051891;28;20086;-77
2022/11/25 11:15:27;;;;;;;9.50;2.60;;;;;;;-143.48;55.73;78478.22;5054307;28;20026;-77
2022/11/25 11:17:55;;;;;;;12.48;2.92;;;;;;;-143.48;58.56;78551.59;5054170;28;20029;-76
2022/11/25 11:20:22;;;;;;;9.52;2.67;;;;;;;-143.48;60.59;78605.16;5052509;28;20102;-77
2022/11/25 11:23:03;;;;;;;10.82;2.72;;;;;;;-143.48;61.25;78644.81;5052825;28;20032;-77
2022/11/25 11:25:32;;;;;;;8.30;2.67;;;;;;;-143.48;65.53;78751.91;5054303;28;20136;-76
2022/11/25 11:27:58;;;;;;;12.07;2.85;;;;;;;-143.48;66.95;78771.75;5054372;28;20094;-77
2022/11/25 11:30:30;;;;;;;10.18;2.40;;;;;;;-143.48;68.19;78835.22;5054753;28;20120;-76
2022/11/25 11:33:26;;;;;;;11.82;2.50;;;;;;;-143.48;70.90;78904.63;5053303;28;20029;-77